Bronx, NY

9:01 AM EDT en Octubre 20, 2014 (GMT -0400)
South Bronx | Change Station
CLOSE
Current Station
Estación meteorológica personal
Location: New York, NY
Altura: 36 ft
Estaciones meteorológicas cercanas

Alt 36 ft 40.81 °N, 73.91 °W | Updated 43 minutes ago

Parcialmente nublado
Parcialmente nublado
45.6 ° F
Sensación térmica 46 ° F
N
0.0
Viento Variable Viento desde Este
Gusts 0.0 mph

Hoy
Alta -- | Baja -- ° F
--% Posibilidad de precipitaciones
Ayer
Alta -- | Baja -- ° F
Precip. -- pul
7:12 AM 6:07 PM
Creciente menguante, 11% visible
Presión 30.12 pul
Visibilidad 10.0 Millas
Nubes Baja 12000 ft
Muy nublado 25000 ft
Vientos helados 46 ° F
Punto de rocío 32 ° F
Humedad 59%
Precipitaciones -999.00 pul
Espesor de la nieve No disponible.
UV 1 de una escala de 12
Polen 1.10 de una escala de 12
Ozono Buena
PM2.5 Buena
Flu Activity Sporadic
METAR KLGA 201251Z 23008KT 10SM FEW120 BKN250 09/M01 A3012 RMK AO2 SLP200 T00891011

More Conditions Fewer Conditions

Presión 30.12 pul
Visibilidad 10.0 Millas
Nubes Baja 12000 ft
Muy nublado 25000 ft
Vientos helados 46 ° F
Punto de rocío 32 ° F
Humedad 59%
Precipitaciones -999.00 pul
Espesor de la nieve No disponible.
UV 1 de una escala de 12
Polen 1.10 de una escala de 12
Ozono Buena
PM2.5 Buena
Flu Activity Sporadic
METAR KLGA 201251Z 23008KT 10SM FEW120 BKN250 09/M01 A3012 RMK AO2 SLP200 T00891011

More Conditions Fewer Conditions

10-Day Weather Forecast

Almanac

Astronomía

Oct. 20, 2014 Salida Puesta
Hora real 7:12 AM EDT 6:07 PM EDT
Crepúsculo civil 6:44 AM EDT 6:35 PM EDT
Crepúsculo náutico 6:12 AM EDT 7:07 PM EDT
Crepúsculo astronómico 5:40 AM EDT 7:39 PM EDT
Luna 3:57 AM EDT 4:30 PM EDT
Horas de luz 11h 51m
Horas de luz
10h 55m
Creciente menguante, 11% of the Moon is Illuminated
Hoy
Creciente menguante
Oct 23
Nueva
Oct 30
Cuarto creciente
Nov 6
Luna llena
Nov 14
Cuarto menguante

Extremos de hoy

Máximos del estado Bajos del estado

Community

WunderPhotos

Upload Photos

1,763,363 ¡fotos cargadas!

Nearby

Calidad del aire

  Calidad del aire Índice AQ Contaminante
Ayer Buena
OZONE
Ayer Buena
PM2.5
Real Buena
PM2.5
Real Buena
OZONE
Lunes Buena
PM2.5

Grosos de nieve

Estación Profundido Altura
No tenemos constancia de nieve nueva.

Actividad de terremotos

Ciudad Distance Mag. Tiempo y dato
No hay informes recientes de la actividad sísmica.
Magnitud mínima muestra es 2,5.

Temperaturas de aguas costeras

Lugar Temperatura
Kings Point, NY 57.9 ° F
Bridgeport, CT 64.0 ° F

Estaciones meteorológicas cercanas